createdAt,value
2022-11-04T00:00:55.366Z,6.97
2022-11-04T00:03:22.458Z,6.60
2022-11-04T00:05:49.354Z,6.63
2022-11-04T00:08:25.238Z,7.20
2022-11-04T00:11:15.256Z,6.60
2022-11-04T00:13:42.587Z,6.43
2022-11-04T00:16:29.158Z,7.03
2022-11-04T00:18:56.289Z,6.43
2022-11-04T00:21:41.804Z,6.70
2022-11-04T00:24:30.933Z,7.00
2022-11-04T00:27:17.356Z,6.60
2022-11-04T00:29:44.787Z,6.93
2022-11-04T00:32:30.462Z,7.30
2022-11-04T00:34:57.727Z,6.40
2022-11-04T00:37:24.656Z,7.10
2022-11-04T00:39:52.028Z,6.30
2022-11-04T00:42:19.067Z,6.93
2022-11-04T00:44:46.045Z,6.60
2022-11-04T00:47:13.082Z,6.27
2022-11-04T00:49:40.384Z,6.60
2022-11-04T00:52:07.278Z,5.90
2022-11-04T00:54:34.419Z,6.57
2022-11-04T00:57:01.341Z,5.60
2022-11-04T00:59:28.839Z,6.47
2022-11-04T01:01:56.806Z,6.43
2022-11-04T01:04:24.119Z,6.20
2022-11-04T01:06:51.344Z,6.20
2022-11-04T01:09:18.714Z,6.33
2022-11-04T01:11:45.738Z,6.60
2022-11-04T01:14:13.087Z,6.50
2022-11-04T01:16:40.455Z,5.67
2022-11-04T01:19:07.624Z,5.73
2022-11-04T01:21:34.573Z,6.17
2022-11-04T01:24:01.732Z,6.17
2022-11-04T01:26:29.950Z,6.53
2022-11-04T01:28:58.294Z,7.67
2022-11-04T01:31:30.220Z,6.23
2022-11-04T01:33:58.572Z,7.83
2022-11-04T01:36:26.575Z,8.27
2022-11-04T01:38:56.739Z,7.67
2022-11-04T01:41:28.142Z,8.10
2022-11-04T01:44:04.104Z,7.00
2022-11-04T01:46:39.438Z,6.40
2022-11-04T01:49:31.616Z,5.47
2022-11-04T01:52:08.368Z,4.90
2022-11-04T01:54:36.991Z,4.17
2022-11-04T01:57:08.854Z,3.93
2022-11-04T01:59:39.430Z,3.60
2022-11-04T02:02:07.351Z,2.93
2022-11-04T02:04:36.373Z,2.73
2022-11-04T02:07:07.482Z,2.83
2022-11-04T02:09:36.677Z,2.57
2022-11-04T02:12:22.817Z,3.20
2022-11-04T02:14:51.414Z,3.70
2022-11-04T02:17:18.284Z,3.00
2022-11-04T02:20:16.188Z,2.80
2022-11-04T02:23:36.085Z,2.93
2022-11-04T02:26:24.695Z,2.40
2022-11-04T02:29:19.728Z,1.97
2022-11-04T02:32:11.397Z,1.87
2022-11-04T02:35:04.861Z,1.70
2022-11-04T02:37:57.880Z,1.80
2022-11-04T02:40:53.414Z,1.63
2022-11-04T02:43:49.833Z,1.50
2022-11-04T02:47:05.449Z,2.03
2022-11-04T02:49:49.033Z,2.70
2022-11-04T02:52:51.333Z,2.37
2022-11-04T02:55:34.755Z,2.20
2022-11-04T02:58:06.160Z,2.83
2022-11-04T03:00:34.573Z,3.37
2022-11-04T03:03:11.348Z,3.50
2022-11-04T03:05:41.012Z,3.40
2022-11-04T03:08:27.174Z,4.20
2022-11-04T03:11:03.347Z,4.27
2022-11-04T03:13:43.904Z,5.40
2022-11-04T03:16:17.611Z,5.30
2022-11-04T03:19:12.502Z,5.40
2022-11-04T03:21:50.360Z,6.40
2022-11-04T03:24:17.541Z,6.70
2022-11-04T03:27:21.436Z,5.23
2022-11-04T03:30:09.253Z,6.13
2022-11-04T03:33:07.633Z,6.70
2022-11-04T03:35:34.937Z,6.50
2022-11-04T03:38:02.427Z,7.23
2022-11-04T03:40:29.699Z,6.23
2022-11-04T03:43:10.240Z,6.40
2022-11-04T03:45:39.270Z,5.57
2022-11-04T03:48:06.425Z,5.97
2022-11-04T03:50:45.093Z,6.67
2022-11-04T03:53:15.510Z,6.60
2022-11-04T03:55:42.392Z,7.20
2022-11-04T03:58:46.551Z,7.00
2022-11-04T04:02:06.060Z,6.40
2022-11-04T04:04:36.648Z,6.20
2022-11-04T04:07:21.352Z,6.77
2022-11-04T04:10:35.760Z,6.73
2022-11-04T04:13:10.461Z,6.60
2022-11-04T04:15:57.991Z,6.03
2022-11-04T04:18:58.848Z,6.53
2022-11-04T04:22:17.422Z,6.20
2022-11-04T04:25:06.301Z,6.20
2022-11-04T04:27:35.334Z,6.70
2022-11-04T04:30:15.089Z,6.90
2022-11-04T04:32:45.607Z,6.70
2022-11-04T04:35:31.746Z,6.47
2022-11-04T04:38:21.664Z,7.00
2022-11-04T04:41:42.399Z,7.00
2022-11-04T04:44:43.428Z,7.10
2022-11-04T04:47:19.939Z,6.80
2022-11-04T04:49:58.763Z,6.70
2022-11-04T04:52:33.040Z,7.23
2022-11-04T04:55:00.429Z,6.77
2022-11-04T04:57:27.424Z,8.57
2022-11-04T04:59:54.553Z,8.20
2022-11-04T05:02:21.843Z,8.50
2022-11-04T05:04:49.139Z,8.60
2022-11-04T05:07:16.123Z,9.00
2022-11-04T05:09:43.107Z,8.50
2022-11-04T05:12:10.416Z,9.43
2022-11-04T05:14:37.428Z,9.77
2022-11-04T05:17:04.733Z,9.50
2022-11-04T05:19:31.980Z,10.40
2022-11-04T05:21:59.204Z,10.03
2022-11-04T05:24:26.373Z,10.30
2022-11-04T05:26:53.270Z,10.80
2022-11-04T05:29:20.459Z,9.93
2022-11-04T05:31:47.731Z,11.10
2022-11-04T05:34:15.410Z,10.47
2022-11-04T05:36:42.458Z,11.73
2022-11-04T05:39:13.584Z,11.33
2022-11-04T05:41:40.855Z,14.07
2022-11-04T05:44:09.762Z,15.47
2022-11-04T05:46:36.856Z,18.57
2022-11-04T05:49:04.813Z,18.60
2022-11-04T05:51:32.258Z,16.47
2022-11-04T05:53:59.429Z,14.60
2022-11-04T05:56:26.478Z,13.23
2022-11-04T05:58:54.076Z,12.60
2022-11-04T06:01:29.030Z,11.60
2022-11-04T06:03:58.120Z,12.67
2022-11-04T06:06:28.057Z,11.20
2022-11-04T06:08:56.932Z,13.03
2022-11-04T06:11:25.018Z,13.83
2022-11-04T06:13:54.858Z,14.60
2022-11-04T06:16:22.495Z,18.47
2022-11-04T06:18:49.920Z,17.30
2022-11-04T06:21:18.269Z,14.20
2022-11-04T06:23:45.553Z,16.07
2022-11-04T06:26:13.325Z,16.63
2022-11-04T06:28:40.610Z,14.27
2022-11-04T06:31:10.371Z,14.23
2022-11-04T06:33:37.698Z,11.80
2022-11-04T06:36:08.462Z,11.30
2022-11-04T06:38:37.904Z,9.57
2022-11-04T06:41:11.239Z,9.47
2022-11-04T06:43:39.052Z,10.00
2022-11-04T06:46:06.461Z,9.93
2022-11-04T06:48:33.521Z,9.10
2022-11-04T06:51:01.291Z,10.00
2022-11-04T06:53:29.320Z,10.07
2022-11-04T06:56:03.890Z,11.37
2022-11-04T06:58:30.991Z,17.37
2022-11-04T07:00:58.087Z,16.77
2022-11-04T07:03:25.233Z,17.20
2022-11-04T07:05:52.167Z,14.53
2022-11-04T07:08:19.257Z,14.60
2022-11-04T07:10:46.552Z,11.03
2022-11-04T07:13:14.200Z,10.83
2022-11-04T07:15:41.381Z,10.50
2022-11-04T07:18:08.597Z,9.30
2022-11-04T07:20:38.865Z,9.17
2022-11-04T07:23:06.033Z,10.30
2022-11-04T07:25:32.948Z,12.37
2022-11-04T07:28:02.361Z,12.87
2022-11-04T07:30:30.042Z,15.07
2022-11-04T07:32:57.003Z,24.73
2022-11-04T07:35:23.976Z,23.80
2022-11-04T07:37:51.309Z,23.10
2022-11-04T07:40:18.490Z,22.40
2022-11-04T07:42:45.410Z,22.10
2022-11-04T07:45:17.504Z,16.80
2022-11-04T07:47:44.635Z,17.13
2022-11-04T07:50:11.914Z,18.00
2022-11-04T07:52:39.126Z,21.80
2022-11-04T07:55:06.677Z,17.27
2022-11-04T07:57:33.751Z,12.33
2022-11-04T08:00:00.771Z,9.20
2022-11-04T08:02:33.950Z,8.40
2022-11-04T08:05:02.080Z,8.47
2022-11-04T08:07:29.067Z,9.23
2022-11-04T08:09:56.241Z,8.73
2022-11-04T08:12:24.260Z,9.23
2022-11-04T08:14:51.882Z,9.10
2022-11-04T08:17:18.880Z,8.53
2022-11-04T08:19:45.886Z,8.90
2022-11-04T08:22:13.113Z,8.80
2022-11-04T08:24:40.434Z,8.80
2022-11-04T08:27:08.139Z,9.10
2022-11-04T08:29:35.889Z,8.80
2022-11-04T08:32:03.363Z,8.70
2022-11-04T08:34:30.828Z,8.40
2022-11-04T08:36:58.804Z,8.83
2022-11-04T08:39:26.319Z,12.10
2022-11-04T08:41:53.992Z,10.57
2022-11-04T08:44:22.368Z,10.10
2022-11-04T08:46:49.296Z,7.90
2022-11-04T08:49:20.646Z,8.80
2022-11-04T08:51:56.389Z,8.57
2022-11-04T08:54:25.241Z,7.90
2022-11-04T08:56:52.469Z,8.70
2022-11-04T08:59:19.501Z,8.07
2022-11-04T09:01:46.458Z,8.40
2022-11-04T09:04:14.104Z,8.03
2022-11-04T09:06:44.859Z,8.10
2022-11-04T09:09:16.183Z,7.50
2022-11-04T09:11:44.955Z,7.63
2022-11-04T09:14:12.338Z,7.73
2022-11-04T09:16:41.525Z,8.40
2022-11-04T09:19:09.141Z,6.97
2022-11-04T09:21:36.430Z,7.70
2022-11-04T09:24:03.646Z,7.03
2022-11-04T09:26:31.376Z,6.83
2022-11-04T09:28:59.354Z,7.27
2022-11-04T09:31:29.478Z,7.63
2022-11-04T09:33:56.684Z,7.13
2022-11-04T09:36:24.457Z,6.80
2022-11-04T09:38:52.045Z,7.33
2022-11-04T09:41:48.358Z,6.20
2022-11-04T09:45:06.967Z,7.00
2022-11-04T09:47:28.620Z,7.10
2022-11-04T09:49:59.286Z,7.10
2022-11-04T09:52:44.572Z,7.70
2022-11-04T09:55:33.236Z,7.70
2022-11-04T09:58:00.769Z,7.73
2022-11-04T10:00:32.472Z,6.50
2022-11-04T10:03:48.158Z,6.33
2022-11-04T10:06:45.760Z,6.63
2022-11-04T10:09:49.746Z,6.60
2022-11-04T10:12:43.772Z,6.20
2022-11-04T10:15:38.263Z,6.10
2022-11-04T10:18:38.139Z,6.80
2022-11-04T10:21:47.588Z,6.60
2022-11-04T10:24:43.369Z,6.20
2022-11-04T10:27:19.978Z,6.27
2022-11-04T10:30:15.740Z,5.97
2022-11-04T10:33:19.410Z,5.70
2022-11-04T10:35:58.676Z,5.20
2022-11-04T10:38:51.784Z,5.03
2022-11-04T10:41:24.657Z,5.33
2022-11-04T10:43:57.009Z,5.20
2022-11-04T10:47:04.342Z,5.50
2022-11-04T10:50:26.578Z,4.97
2022-11-04T10:52:43.270Z,5.20
2022-11-04T10:55:33.448Z,5.20
2022-11-04T10:58:01.332Z,5.13
2022-11-04T11:00:39.853Z,5.57
2022-11-04T11:03:34.324Z,4.90
2022-11-04T11:06:14.669Z,4.60
2022-11-04T11:08:44.089Z,5.53
2022-11-04T11:11:12.630Z,4.53
2022-11-04T11:13:43.537Z,5.17
2022-11-04T11:16:24.945Z,5.67
2022-11-04T11:19:11.666Z,5.30
2022-11-04T11:21:49.440Z,5.63
2022-11-04T11:24:23.175Z,5.33
2022-11-04T11:26:57.044Z,5.40
2022-11-04T11:29:40.212Z,4.80
2022-11-04T11:32:27.868Z,4.63
2022-11-04T11:34:55.250Z,4.27
2022-11-04T11:37:25.778Z,5.17
2022-11-04T11:39:52.876Z,4.80
2022-11-04T11:42:20.481Z,4.50
2022-11-04T11:44:57.087Z,4.00
2022-11-04T11:47:29.795Z,3.47
2022-11-04T11:50:29.996Z,4.00
2022-11-04T11:53:18.381Z,4.40
2022-11-04T11:56:11.718Z,3.43
2022-11-04T12:02:53.258Z,3.37
2022-11-04T12:11:55.656Z,3.50
2022-11-04T12:14:58.038Z,3.50
2022-11-04T12:17:51.875Z,3.40
2022-11-04T12:20:56.110Z,3.70
2022-11-04T12:23:57.754Z,3.43
2022-11-04T12:26:48.629Z,4.07
2022-11-04T12:30:06.900Z,3.83
2022-11-04T12:33:11.017Z,3.60
2022-11-04T12:36:11.045Z,3.90
2022-11-04T12:39:02.719Z,3.93
2022-11-04T12:42:21.899Z,3.33
2022-11-04T12:45:25.001Z,3.30
2022-11-04T12:48:00.473Z,3.13
2022-11-04T12:50:40.920Z,2.97
2022-11-04T12:53:42.998Z,3.03
2022-11-04T12:56:18.424Z,4.13
2022-11-04T12:59:09.892Z,3.70
2022-11-04T13:01:47.032Z,3.53
2022-11-04T13:05:07.597Z,3.90
2022-11-04T13:07:43.082Z,3.50
2022-11-04T13:10:22.800Z,3.30
2022-11-04T13:12:52.652Z,3.90
2022-11-04T13:15:23.897Z,4.00
2022-11-04T13:17:58.994Z,3.80
2022-11-04T13:20:45.095Z,3.40
2022-11-04T13:23:31.008Z,3.73
2022-11-04T13:25:59.924Z,3.80
2022-11-04T13:28:27.094Z,3.70
2022-11-04T13:31:08.825Z,3.53
2022-11-04T13:34:00.500Z,4.53
2022-11-04T13:36:53.714Z,4.23
2022-11-04T13:39:34.075Z,3.70
2022-11-04T13:42:42.455Z,3.93
2022-11-04T13:45:16.430Z,8.03
2022-11-04T13:47:57.619Z,4.80
2022-11-04T13:50:37.697Z,4.13
2022-11-04T13:53:09.496Z,4.13
2022-11-04T13:55:49.902Z,4.20
2022-11-04T13:58:26.081Z,4.43
2022-11-04T14:01:31.788Z,3.87
2022-11-04T14:04:13.529Z,4.60
2022-11-04T14:07:04.030Z,3.57
2022-11-04T14:09:42.954Z,3.80
2022-11-04T14:12:18.847Z,4.33
2022-11-04T14:15:05.161Z,4.10
2022-11-04T14:17:35.112Z,4.70
2022-11-04T14:20:14.110Z,3.97
2022-11-04T14:22:43.924Z,4.20
2022-11-04T14:25:35.228Z,4.87
2022-11-04T14:28:18.858Z,3.60
2022-11-04T14:30:59.518Z,4.07
2022-11-04T14:33:53.749Z,3.93
2022-11-04T14:36:20.953Z,3.80
2022-11-04T14:39:08.271Z,3.97
2022-11-04T14:41:41.378Z,4.07
2022-11-04T14:44:38.383Z,3.73
2022-11-04T14:47:28.920Z,3.53
2022-11-04T14:49:59.019Z,4.27
2022-11-04T14:52:38.569Z,4.27
2022-11-04T14:55:13.692Z,5.87
2022-11-04T14:57:44.512Z,4.20
2022-11-04T15:00:23.298Z,12.70
2022-11-04T15:03:27.599Z,7.30
2022-11-04T15:06:03.246Z,6.10
2022-11-04T15:08:40.991Z,4.73
2022-11-04T15:11:16.619Z,4.47
2022-11-04T15:13:46.297Z,4.67
2022-11-04T15:16:26.896Z,3.90
2022-11-04T15:18:56.508Z,4.33
2022-11-04T15:21:24.324Z,4.40
2022-11-04T15:23:53.695Z,4.70
2022-11-04T15:26:30.432Z,5.10
2022-11-04T15:29:11.490Z,3.90
2022-11-04T15:31:52.908Z,5.73
2022-11-04T15:34:20.896Z,4.77
2022-11-04T15:36:49.860Z,7.57
2022-11-04T15:39:20.274Z,5.03
2022-11-04T15:42:08.956Z,7.20
2022-11-04T15:44:38.549Z,6.73
2022-11-04T15:47:17.620Z,6.40
2022-11-04T15:49:46.703Z,7.40
2022-11-04T15:52:24.861Z,8.67
2022-11-04T15:54:55.020Z,17.80
2022-11-04T15:57:29.636Z,18.53
2022-11-04T16:00:26.774Z,9.63
2022-11-04T16:02:57.531Z,6.93
2022-11-04T16:05:35.853Z,7.27
2022-11-04T16:08:21.734Z,9.17
2022-11-04T16:10:49.539Z,9.53
2022-11-04T16:13:16.403Z,7.80
2022-11-04T16:16:09.387Z,8.00
2022-11-04T16:18:39.393Z,5.97
2022-11-04T16:21:22.052Z,8.10
2022-11-04T16:23:54.451Z,8.30
2022-11-04T16:26:38.592Z,11.43
2022-11-04T16:29:22.128Z,8.90
2022-11-04T16:32:08.259Z,8.67
2022-11-04T16:34:35.741Z,10.53
2022-11-04T16:37:02.895Z,6.13
2022-11-04T16:39:30.807Z,8.43
2022-11-04T16:41:57.804Z,7.50
2022-11-04T16:44:26.064Z,7.63
2022-11-04T16:46:54.106Z,7.13
2022-11-04T16:49:23.593Z,6.77
2022-11-04T16:51:57.256Z,7.70
2022-11-04T16:54:25.358Z,6.87
2022-11-04T16:56:53.817Z,7.23
2022-11-04T16:59:21.161Z,7.10
2022-11-04T17:01:48.105Z,7.80
2022-11-04T17:04:15.525Z,7.40
2022-11-04T17:06:43.411Z,8.60
2022-11-04T17:09:24.128Z,8.03
2022-11-04T17:11:51.180Z,9.10
2022-11-04T17:14:18.158Z,8.73
2022-11-04T17:16:45.073Z,9.87
2022-11-04T17:19:16.565Z,16.27
2022-11-04T17:21:45.234Z,24.60
2022-11-04T17:24:12.599Z,13.63
2022-11-04T17:26:39.656Z,21.77
2022-11-04T17:29:06.670Z,17.13
2022-11-04T17:31:34.116Z,10.47
2022-11-04T17:34:01.263Z,9.90
2022-11-04T17:36:28.339Z,9.20
2022-11-04T17:38:55.275Z,12.77
2022-11-04T17:41:40.853Z,11.03
2022-11-04T17:44:07.992Z,12.30
2022-11-04T17:46:35.360Z,10.87
2022-11-04T17:49:23.580Z,11.30
2022-11-04T17:51:57.241Z,12.70
2022-11-04T17:54:27.215Z,20.57
2022-11-04T17:56:54.186Z,39.83
2022-11-04T17:59:21.189Z,15.83
2022-11-04T18:01:48.753Z,12.43
2022-11-04T18:04:22.280Z,12.87
2022-11-04T18:06:50.965Z,19.57
2022-11-04T18:09:19.075Z,21.63
2022-11-04T18:12:05.336Z,13.90
2022-11-04T18:14:33.167Z,16.07
2022-11-04T18:17:00.355Z,21.67
2022-11-04T18:19:28.301Z,14.97
2022-11-04T18:21:55.228Z,13.37
2022-11-04T18:24:22.926Z,13.10
2022-11-04T18:26:50.240Z,12.50
2022-11-04T18:29:17.582Z,11.20
2022-11-04T18:31:53.713Z,9.70
2022-11-04T18:34:26.490Z,24.83
2022-11-04T18:36:54.380Z,11.23
2022-11-04T18:39:41.723Z,12.90
2022-11-04T18:42:15.238Z,12.40
2022-11-04T18:44:52.717Z,12.30
2022-11-04T18:47:26.868Z,10.40
2022-11-04T18:50:08.920Z,11.30
2022-11-04T18:52:42.514Z,12.50
2022-11-04T18:55:24.644Z,15.60
2022-11-04T18:58:07.997Z,18.13
2022-11-04T19:00:37.551Z,13.67
2022-11-04T19:03:04.646Z,11.33
2022-11-04T19:05:31.759Z,10.97
2022-11-04T19:07:58.718Z,11.70
2022-11-04T19:10:25.823Z,12.00
2022-11-04T19:13:11.031Z,11.27
2022-11-04T19:15:38.234Z,10.73
2022-11-04T19:18:05.459Z,11.03
2022-11-04T19:20:33.358Z,11.27
2022-11-04T19:23:00.294Z,10.70
2022-11-04T19:25:27.453Z,10.27
2022-11-04T19:28:18.782Z,11.43
2022-11-04T19:30:41.841Z,12.07
2022-11-04T19:33:08.933Z,14.50
2022-11-04T19:35:38.104Z,16.07
2022-11-04T19:38:07.004Z,15.13
2022-11-04T19:40:34.632Z,13.80
2022-11-04T19:43:10.738Z,13.07
2022-11-04T19:45:43.331Z,13.23
2022-11-04T19:48:10.809Z,13.77
2022-11-04T19:50:49.173Z,15.60
2022-11-04T19:53:16.950Z,13.67
2022-11-04T19:55:54.796Z,12.30
2022-11-04T19:58:23.256Z,14.87
2022-11-04T20:00:51.051Z,13.67
2022-11-04T20:03:18.159Z,13.97
2022-11-04T20:05:45.457Z,14.77
2022-11-04T20:08:13.161Z,14.83
2022-11-04T20:10:43.002Z,16.20
2022-11-04T20:13:37.360Z,14.47
2022-11-04T20:16:21.011Z,17.67
2022-11-04T20:18:51.860Z,17.63
2022-11-04T20:21:20.858Z,16.40
2022-11-04T20:23:48.161Z,14.80
2022-11-04T20:26:20.785Z,16.33
2022-11-04T20:28:48.219Z,16.20
2022-11-04T20:31:19.976Z,15.87
2022-11-04T20:33:49.080Z,14.10
2022-11-04T20:36:20.478Z,15.67
2022-11-04T20:38:47.519Z,15.20
2022-11-04T20:41:19.702Z,17.80
2022-11-04T20:43:49.161Z,16.20
2022-11-04T20:46:20.671Z,16.90
2022-11-04T20:48:48.520Z,15.50
2022-11-04T20:51:18.759Z,15.30
2022-11-04T20:53:46.089Z,16.30
2022-11-04T20:56:17.329Z,16.60
2022-11-04T20:58:47.033Z,17.13
2022-11-04T21:01:26.195Z,15.90
2022-11-04T21:04:02.705Z,16.23
2022-11-04T21:06:30.234Z,15.43
2022-11-04T21:09:00.624Z,18.20
2022-11-04T21:11:31.841Z,17.63
2022-11-04T21:13:59.922Z,18.30
2022-11-04T21:16:27.327Z,19.10
2022-11-04T21:18:55.326Z,19.07
2022-11-04T21:21:22.979Z,16.80
2022-11-04T21:23:51.206Z,18.03
2022-11-04T21:26:24.657Z,17.40
2022-11-04T21:28:56.751Z,17.20
2022-11-04T21:31:25.414Z,16.60
2022-11-04T21:33:53.823Z,16.80
2022-11-04T21:36:22.365Z,16.27
2022-11-04T21:38:49.928Z,15.77
2022-11-04T21:41:23.067Z,15.33
2022-11-04T21:43:55.289Z,15.17
2022-11-04T21:46:22.922Z,14.60
2022-11-04T21:48:49.797Z,20.30
2022-11-04T21:51:21.894Z,16.50
2022-11-04T21:53:49.132Z,15.37
2022-11-04T21:56:28.388Z,14.77
2022-11-04T21:58:56.434Z,13.03
2022-11-04T22:01:28.628Z,12.53
2022-11-04T22:04:01.403Z,13.50
2022-11-04T22:06:34.803Z,14.53
2022-11-04T22:09:06.237Z,13.73
2022-11-04T22:11:39.846Z,14.23
2022-11-04T22:14:08.579Z,13.37
2022-11-04T22:16:39.089Z,15.07
2022-11-04T22:19:10.520Z,13.07
2022-11-04T22:21:41.118Z,10.83
2022-11-04T22:24:18.001Z,13.27
2022-11-04T22:26:44.961Z,11.93
2022-11-04T22:29:11.846Z,14.93
2022-11-04T22:31:42.796Z,14.70
2022-11-04T22:34:09.943Z,15.00
2022-11-04T22:36:37.844Z,13.73
2022-11-04T22:39:05.688Z,13.43
2022-11-04T22:41:35.536Z,10.77
2022-11-04T22:44:03.277Z,12.20
2022-11-04T22:46:32.751Z,13.03
2022-11-04T22:48:59.910Z,13.53
2022-11-04T22:51:27.800Z,12.67
2022-11-04T22:54:01.363Z,13.20
2022-11-04T22:56:31.802Z,14.80
2022-11-04T22:59:00.351Z,15.50
2022-11-04T23:01:27.450Z,12.77
2022-11-04T23:03:54.527Z,13.57
2022-11-04T23:06:21.558Z,14.17
2022-11-04T23:08:49.162Z,12.93
2022-11-04T23:11:41.859Z,12.20
2022-11-04T23:14:36.323Z,11.40
2022-11-04T23:17:43.113Z,11.80
2022-11-04T23:20:14.257Z,12.00
2022-11-04T23:23:00.818Z,11.40
2022-11-04T23:25:27.913Z,10.60
2022-11-04T23:28:14.553Z,10.67
2022-11-04T23:30:51.270Z,10.00
2022-11-04T23:33:18.637Z,9.57
2022-11-04T23:36:07.499Z,10.90
2022-11-04T23:38:35.560Z,9.87
2022-11-04T23:41:25.776Z,9.77
2022-11-04T23:43:52.850Z,9.57
2022-11-04T23:46:52.312Z,9.50
2022-11-04T23:49:38.024Z,9.33
2022-11-04T23:52:23.698Z,10.10
2022-11-04T23:55:09.754Z,8.90
2022-11-04T23:57:55.369Z,10.97
